createdAt,value
2022-08-17T00:00:01.257Z,78.76
2022-08-17T00:05:36.990Z,78.93
2022-08-17T00:10:44.534Z,79.09
2022-08-17T00:16:21.704Z,79.13
2022-08-17T00:22:32.677Z,79.51
2022-08-17T00:27:44.407Z,79.62
2022-08-17T00:33:14.716Z,80.08
2022-08-17T00:38:29.640Z,80.32
2022-08-17T00:43:54.310Z,80.81
2022-08-17T00:49:20.028Z,80.98
2022-08-17T00:55:01.209Z,81.20
2022-08-17T01:02:02.092Z,81.50
2022-08-17T01:07:37.970Z,81.69
2022-08-17T01:13:41.083Z,81.87
2022-08-17T01:19:27.195Z,82.11
2022-08-17T01:25:02.933Z,82.29
2022-08-17T01:31:01.099Z,82.42
2022-08-17T01:36:34.186Z,82.59
2022-08-17T01:42:44.054Z,82.61
2022-08-17T01:48:48.593Z,83.15
2022-08-17T01:54:37.968Z,83.30
2022-08-17T02:00:48.322Z,83.35
2022-08-17T02:06:53.186Z,83.99
2022-08-17T02:12:47.940Z,84.54
2022-08-17T02:19:11.472Z,84.41
2022-08-17T02:25:28.790Z,84.84
2022-08-17T02:31:33.154Z,85.25
2022-08-17T02:37:36.109Z,85.31
2022-08-17T02:44:53.141Z,85.70
2022-08-17T02:51:40.907Z,86.15
2022-08-17T02:57:56.411Z,86.15
2022-08-17T03:04:08.646Z,86.17
2022-08-17T03:10:35.101Z,86.35
2022-08-17T03:17:38.953Z,86.52
2022-08-17T03:24:08.720Z,86.61
2022-08-17T03:30:27.144Z,86.65
2022-08-17T03:37:37.209Z,87.17
2022-08-17T03:44:09.486Z,87.30
2022-08-17T03:50:18.594Z,87.49
2022-08-17T03:57:02.907Z,87.55
2022-08-17T04:03:26.712Z,87.81
2022-08-17T04:10:33.883Z,87.98
2022-08-17T04:16:25.953Z,87.95
2022-08-17T04:22:31.346Z,87.95
2022-08-17T04:27:50.292Z,87.69
2022-08-17T04:33:29.734Z,87.81
2022-08-17T04:39:05.362Z,87.69
2022-08-17T04:44:37.397Z,87.51
2022-08-17T04:49:53.695Z,87.83
2022-08-17T04:55:16.148Z,87.75
2022-08-17T05:00:45.698Z,87.61
2022-08-17T05:06:22.838Z,87.17
2022-08-17T05:11:39.945Z,86.99
2022-08-17T05:17:36.169Z,86.48
2022-08-17T05:23:07.955Z,86.21
2022-08-17T05:28:34.175Z,86.21
2022-08-17T05:34:09.647Z,85.64
2022-08-17T05:39:29.473Z,85.40
2022-08-17T05:45:39.988Z,85.00
2022-08-17T05:51:34.650Z,84.75
2022-08-17T05:57:54.212Z,84.11
2022-08-17T06:03:22.042Z,83.80
2022-08-17T06:09:33.782Z,83.77
2022-08-17T06:15:08.089Z,82.86
2022-08-17T06:20:14.503Z,82.58
2022-08-17T06:25:31.880Z,81.73
2022-08-17T06:31:07.751Z,80.98
2022-08-17T06:36:48.101Z,80.13
2022-08-17T06:42:54.759Z,79.26
2022-08-17T06:48:27.496Z,78.63
2022-08-17T06:53:42.140Z,78.37
2022-08-17T06:58:59.684Z,77.13
2022-08-17T07:04:35.595Z,76.81
2022-08-17T07:09:43.605Z,76.16
2022-08-17T07:15:11.345Z,75.98
2022-08-17T07:20:25.100Z,74.70
2022-08-17T07:25:32.522Z,74.29
2022-08-17T07:30:59.554Z,73.94
2022-08-17T07:36:13.230Z,73.22
2022-08-17T07:41:57.826Z,71.58
2022-08-17T07:47:24.032Z,71.03
2022-08-17T07:52:50.307Z,70.50
2022-08-17T07:58:02.164Z,69.80
2022-08-17T08:03:44.071Z,68.44
2022-08-17T08:09:40.829Z,67.95
2022-08-17T08:15:02.810Z,67.53
2022-08-17T08:20:42.480Z,67.11
2022-08-17T08:26:02.100Z,66.67
2022-08-17T08:31:46.420Z,65.90
2022-08-17T08:37:12.572Z,65.24
2022-08-17T08:42:43.072Z,64.90
2022-08-17T08:48:05.300Z,63.65
2022-08-17T08:53:52.897Z,63.12
2022-08-17T08:59:30.162Z,62.51
2022-08-17T09:05:15.993Z,61.69
2022-08-17T09:10:56.926Z,60.63
2022-08-17T09:16:06.993Z,60.36
2022-08-17T09:21:48.594Z,59.65
2022-08-17T09:27:22.846Z,59.26
2022-08-17T09:33:04.289Z,58.48
2022-08-17T09:38:52.419Z,57.14
2022-08-17T09:44:23.263Z,57.21
2022-08-17T09:49:44.856Z,56.51
2022-08-17T09:54:52.688Z,56.08
2022-08-17T10:00:34.319Z,55.43
2022-08-17T10:06:08.532Z,54.39
2022-08-17T10:11:19.959Z,53.89
2022-08-17T10:16:52.414Z,53.58
2022-08-17T10:22:35.364Z,52.57
2022-08-17T10:28:19.781Z,52.52
2022-08-17T10:33:29.167Z,52.00
2022-08-17T10:39:00.295Z,51.50
2022-08-17T10:44:38.282Z,51.52
2022-08-17T10:49:47.842Z,51.11
2022-08-17T10:55:09.871Z,49.87
2022-08-17T11:00:43.619Z,49.56
2022-08-17T11:06:06.997Z,49.99
2022-08-17T11:11:49.878Z,49.67
2022-08-17T11:17:41.615Z,48.24
2022-08-17T11:23:24.001Z,47.19
2022-08-17T11:28:35.415Z,46.83
2022-08-17T11:34:06.849Z,45.89
2022-08-17T11:39:47.403Z,45.29
2022-08-17T11:45:54.023Z,44.71
2022-08-17T11:51:44.924Z,44.26
2022-08-17T11:56:52.970Z,44.04
2022-08-17T12:02:20.136Z,43.75
2022-08-17T12:07:23.827Z,43.48
2022-08-17T12:12:37.175Z,43.81
2022-08-17T12:17:46.880Z,43.73
2022-08-17T12:23:18.674Z,43.13
2022-08-17T12:28:35.368Z,43.16
2022-08-17T12:33:45.397Z,43.01
2022-08-17T12:39:13.306Z,42.78
2022-08-17T12:44:24.385Z,42.70
2022-08-17T12:49:35.676Z,42.61
2022-08-17T12:55:05.436Z,42.18
2022-08-17T13:00:33.447Z,41.76
2022-08-17T13:06:06.519Z,41.54
2022-08-17T13:11:35.157Z,41.54
2022-08-17T13:16:37.882Z,41.35
2022-08-17T13:21:59.303Z,41.10
2022-08-17T13:27:08.319Z,41.27
2022-08-17T13:32:33.636Z,41.34
2022-08-17T13:37:36.739Z,40.58
2022-08-17T13:42:52.667Z,40.99
2022-08-17T13:48:32.092Z,41.21
2022-08-17T13:54:10.389Z,41.31
2022-08-17T13:59:52.917Z,41.04
2022-08-17T14:05:06.456Z,40.83
2022-08-17T14:10:20.825Z,40.31
2022-08-17T14:15:53.947Z,40.24
2022-08-17T14:20:48.504Z,39.65
2022-08-17T14:26:13.556Z,38.92
2022-08-17T14:31:19.899Z,38.54
2022-08-17T14:36:49.501Z,38.39
2022-08-17T14:42:10.401Z,38.52
2022-08-17T14:47:15.926Z,38.66
2022-08-17T14:52:21.853Z,38.83
2022-08-17T14:57:34.168Z,38.93
2022-08-17T15:02:46.135Z,39.03
2022-08-17T15:08:08.427Z,39.11
2022-08-17T15:13:30.465Z,39.14
2022-08-17T15:18:49.483Z,38.78
2022-08-17T15:23:57.776Z,38.82
2022-08-17T15:29:42.153Z,38.09
2022-08-17T15:34:59.244Z,38.20
2022-08-17T15:40:06.361Z,38.23
2022-08-17T15:45:58.811Z,38.16
2022-08-17T15:51:33.358Z,38.25
2022-08-17T15:56:42.067Z,38.36
2022-08-17T16:03:13.028Z,38.48
2022-08-17T16:07:17.636Z,38.68
2022-08-17T16:12:22.026Z,38.68
2022-08-17T16:17:39.143Z,38.86
2022-08-17T16:22:46.496Z,38.89
2022-08-17T16:27:55.328Z,38.89
2022-08-17T16:33:03.928Z,39.24
2022-08-17T16:38:07.378Z,39.29
2022-08-17T16:43:18.836Z,39.23
2022-08-17T16:48:34.403Z,39.41
2022-08-17T16:53:44.398Z,39.74
2022-08-17T16:59:31.054Z,40.06
2022-08-17T17:05:06.771Z,40.32
2022-08-17T17:10:22.853Z,40.42
2022-08-17T17:16:06.512Z,40.64
2022-08-17T17:22:45.026Z,41.11
2022-08-17T17:28:46.564Z,41.48
2022-08-17T17:34:18.818Z,41.84
2022-08-17T17:39:44.789Z,42.27
2022-08-17T17:45:29.789Z,42.71
2022-08-17T17:51:58.152Z,43.27
2022-08-17T17:57:14.015Z,44.21
2022-08-17T18:02:53.383Z,44.81
2022-08-17T18:08:21.066Z,45.06
2022-08-17T18:14:00.452Z,45.81
2022-08-17T18:19:26.443Z,46.61
2022-08-17T18:24:41.361Z,47.20
2022-08-17T18:30:53.150Z,47.70
2022-08-17T18:36:44.839Z,48.31
2022-08-17T18:42:46.585Z,49.00
2022-08-17T18:48:20.086Z,49.74
2022-08-17T18:53:53.283Z,50.43
2022-08-17T18:59:41.462Z,50.97
2022-08-17T19:06:13.557Z,51.72
2022-08-17T19:11:50.270Z,52.17
2022-08-17T19:17:30.018Z,52.86
2022-08-17T19:23:53.778Z,53.26
2022-08-17T19:30:07.844Z,53.70
2022-08-17T19:36:23.126Z,54.85
2022-08-17T19:43:01.640Z,55.18
2022-08-17T19:49:49.467Z,55.86
2022-08-17T19:55:52.439Z,56.64
2022-08-17T20:01:14.046Z,57.08
2022-08-17T20:06:28.961Z,57.80
2022-08-17T20:11:44.376Z,58.20
2022-08-17T20:16:50.218Z,58.55
2022-08-17T20:22:18.439Z,59.21
2022-08-17T20:27:31.855Z,59.98
2022-08-17T20:32:58.364Z,60.68
2022-08-17T20:38:31.716Z,61.39
2022-08-17T20:43:33.661Z,62.37
2022-08-17T20:48:52.325Z,62.68
2022-08-17T20:54:29.506Z,63.46
2022-08-17T20:59:43.326Z,64.14
2022-08-17T21:04:56.995Z,64.46
2022-08-17T21:10:23.770Z,64.70
2022-08-17T21:15:48.698Z,65.26
2022-08-17T21:21:33.250Z,65.60
2022-08-17T21:27:20.404Z,66.27
2022-08-17T21:32:30.128Z,66.85
2022-08-17T21:38:13.532Z,67.47
2022-08-17T21:43:47.572Z,67.82
2022-08-17T21:49:14.341Z,68.22
2022-08-17T21:54:44.494Z,68.76
2022-08-17T22:00:26.619Z,69.26
2022-08-17T22:06:01.659Z,69.85
2022-08-17T22:12:07.621Z,70.27
2022-08-17T22:17:58.956Z,70.90
2022-08-17T22:24:05.670Z,71.38
2022-08-17T22:30:11.869Z,72.02
2022-08-17T22:36:18.544Z,72.56
2022-08-17T22:42:12.700Z,72.98
2022-08-17T22:47:39.614Z,73.18
2022-08-17T22:54:00.124Z,73.44
2022-08-17T23:00:01.139Z,73.64
2022-08-17T23:07:03.864Z,73.98
2022-08-17T23:12:29.678Z,74.20
2022-08-17T23:18:17.939Z,74.60
2022-08-17T23:24:10.186Z,74.80
2022-08-17T23:30:55.243Z,75.17
2022-08-17T23:37:04.379Z,75.49
2022-08-17T23:43:28.424Z,75.74
2022-08-17T23:48:48.380Z,75.90
2022-08-17T23:54:21.415Z,76.14
